createdAt,value
2023-05-23T00:01:58.869Z,99731.23
2023-05-23T00:04:27.435Z,99730.46
2023-05-23T00:06:54.907Z,99728.91
2023-05-23T00:09:22.486Z,99726.98
2023-05-23T00:11:49.752Z,99720.45
2023-05-23T00:14:17.100Z,99717.48
2023-05-23T00:16:45.333Z,99717.00
2023-05-23T00:19:15.117Z,99712.98
2023-05-23T00:21:51.001Z,99710.80
2023-05-23T00:24:20.469Z,99708.91
2023-05-23T00:26:47.912Z,99707.83
2023-05-23T00:29:18.496Z,99711.40
2023-05-23T00:31:46.965Z,99709.45
2023-05-23T00:34:18.252Z,99706.65
2023-05-23T00:36:48.145Z,99703.27
2023-05-23T00:39:19.951Z,99703.70
2023-05-23T00:41:51.790Z,99705.42
2023-05-23T00:44:21.386Z,99703.98
2023-05-23T00:46:52.351Z,99703.73
2023-05-23T00:49:23.020Z,99701.41
2023-05-23T00:51:51.698Z,99696.99
2023-05-23T00:54:23.235Z,99698.53
2023-05-23T00:56:50.617Z,99695.55
2023-05-23T00:59:17.999Z,99689.17
2023-05-23T01:01:47.343Z,99691.27
2023-05-23T01:04:16.892Z,99687.96
2023-05-23T01:06:46.721Z,99682.45
2023-05-23T01:09:15.904Z,99685.08
2023-05-23T01:11:56.495Z,99686.25
2023-05-23T01:14:35.383Z,99682.05
2023-05-23T01:17:07.891Z,99685.37
2023-05-23T01:19:52.312Z,99682.91
2023-05-23T01:22:42.076Z,99687.84
2023-05-23T01:25:38.703Z,99688.88
2023-05-23T01:28:06.307Z,99687.00
2023-05-23T01:30:36.201Z,99687.73
2023-05-23T01:33:03.674Z,99687.55
2023-05-23T01:35:31.093Z,99689.17
2023-05-23T01:37:58.491Z,99689.84
2023-05-23T01:40:26.162Z,99693.30
2023-05-23T01:42:55.377Z,99693.36
2023-05-23T01:45:22.722Z,99694.27
2023-05-23T01:47:50.511Z,99694.41
2023-05-23T01:50:18.073Z,99692.41
2023-05-23T01:52:46.948Z,99692.48
2023-05-23T01:55:15.814Z,99690.83
2023-05-23T01:57:43.430Z,99694.10
2023-05-23T02:00:12.467Z,99695.14
2023-05-23T02:02:42.733Z,99694.11
2023-05-23T02:05:11.145Z,99696.87
2023-05-23T02:07:39.928Z,99694.05
2023-05-23T02:10:10.441Z,99690.71
2023-05-23T02:12:38.701Z,99688.37
2023-05-23T02:15:07.663Z,99686.42
2023-05-23T02:17:35.059Z,99681.29
2023-05-23T02:20:02.426Z,99678.91
2023-05-23T02:22:29.783Z,99678.32
2023-05-23T02:24:57.108Z,99678.99
2023-05-23T02:27:24.493Z,99680.09
2023-05-23T02:29:52.115Z,99678.49
2023-05-23T02:32:19.465Z,99677.84
2023-05-23T02:34:46.847Z,99672.95
2023-05-23T02:37:14.878Z,99675.19
2023-05-23T02:39:43.411Z,99674.54
2023-05-23T02:42:10.849Z,99675.17
2023-05-23T02:44:38.369Z,99673.23
2023-05-23T02:47:05.745Z,99673.69
2023-05-23T02:49:34.310Z,99669.75
2023-05-23T02:52:01.657Z,99672.46
2023-05-23T02:54:29.067Z,99666.94
2023-05-23T02:56:56.880Z,99668.00
2023-05-23T02:59:24.283Z,99673.02
2023-05-23T03:01:51.658Z,99669.70
2023-05-23T03:04:19.071Z,99669.61
2023-05-23T03:06:47.797Z,99668.73
2023-05-23T03:09:16.967Z,99664.48
2023-05-23T03:11:44.371Z,99661.41
2023-05-23T03:14:12.299Z,99661.09
2023-05-23T03:16:40.621Z,99664.44
2023-05-23T03:19:08.721Z,99666.41
2023-05-23T03:21:36.385Z,99667.50
2023-05-23T03:24:03.904Z,99665.30
2023-05-23T03:26:31.357Z,99672.51
2023-05-23T03:28:58.820Z,99680.16
2023-05-23T03:31:26.417Z,99676.36
2023-05-23T03:33:54.071Z,99679.86
2023-05-23T03:36:22.066Z,99677.38
2023-05-23T03:38:49.521Z,99674.30
2023-05-23T03:41:17.295Z,99676.74
2023-05-23T03:43:45.133Z,99674.70
2023-05-23T03:46:12.912Z,99675.59
2023-05-23T03:48:42.227Z,99674.46
2023-05-23T03:51:09.874Z,99675.86
2023-05-23T03:53:37.486Z,99679.96
2023-05-23T03:56:05.587Z,99682.52
2023-05-23T03:58:33.078Z,99677.30
2023-05-23T04:01:03.253Z,99678.60
2023-05-23T04:03:32.988Z,99677.20
2023-05-23T04:06:02.044Z,99679.38
2023-05-23T04:08:30.395Z,99688.12
2023-05-23T04:10:57.739Z,99685.96
2023-05-23T04:13:27.367Z,99684.83
2023-05-23T04:15:56.543Z,99688.23
2023-05-23T04:18:25.872Z,99684.21
2023-05-23T04:20:53.409Z,99688.45
2023-05-23T04:23:20.932Z,99686.55
2023-05-23T04:25:51.771Z,99685.33
2023-05-23T04:28:27.666Z,99686.54
2023-05-23T04:30:56.610Z,99691.14
2023-05-23T04:33:28.316Z,99690.16
2023-05-23T04:35:56.398Z,99695.25
2023-05-23T04:38:25.205Z,99698.14
2023-05-23T04:40:54.175Z,99699.63
2023-05-23T04:43:48.806Z,99701.91
2023-05-23T04:46:28.989Z,99705.43
2023-05-23T04:49:10.178Z,99708.52
2023-05-23T04:51:38.391Z,99708.31
2023-05-23T04:54:44.661Z,99703.25
2023-05-23T04:57:12.700Z,99702.52
2023-05-23T04:59:40.532Z,99706.00
2023-05-23T05:02:09.468Z,99710.16
2023-05-23T05:04:38.442Z,99711.44
2023-05-23T05:07:06.313Z,99715.77
2023-05-23T05:09:34.459Z,99716.80
2023-05-23T05:12:02.086Z,99718.67
2023-05-23T05:14:30.151Z,99719.75
2023-05-23T05:16:57.963Z,99720.83
2023-05-23T05:19:30.567Z,99721.44
2023-05-23T05:21:58.094Z,99725.38
2023-05-23T05:24:25.677Z,99724.10
2023-05-23T05:26:53.884Z,99724.21
2023-05-23T05:29:21.439Z,99721.89
2023-05-23T05:31:48.774Z,99725.06
2023-05-23T05:34:16.243Z,99723.17
2023-05-23T05:36:48.347Z,99726.32
2023-05-23T05:39:17.768Z,99726.98
2023-05-23T05:41:45.049Z,99722.99
2023-05-23T05:44:12.333Z,99721.11
2023-05-23T05:46:39.887Z,99720.93
2023-05-23T05:49:08.207Z,99720.77
2023-05-23T05:51:36.836Z,99717.55
2023-05-23T05:54:04.440Z,99713.46
2023-05-23T05:56:32.227Z,99711.77
2023-05-23T05:58:59.531Z,99709.77
2023-05-23T06:01:27.795Z,99709.65
2023-05-23T06:03:55.304Z,99708.23
2023-05-23T06:06:23.220Z,99712.76
2023-05-23T06:08:51.173Z,99707.25
2023-05-23T06:11:18.496Z,99713.41
2023-05-23T06:13:45.885Z,99709.66
2023-05-23T06:16:13.406Z,99711.39
2023-05-23T06:18:41.516Z,99709.58
2023-05-23T06:21:09.533Z,99711.27
2023-05-23T06:23:36.939Z,99713.61
2023-05-23T06:26:08.122Z,99712.59
2023-05-23T06:28:35.523Z,99707.53
2023-05-23T06:31:02.983Z,99708.34
2023-05-23T06:33:31.522Z,99706.91
2023-05-23T06:35:59.045Z,99704.33
2023-05-23T06:38:27.276Z,99705.08
2023-05-23T06:40:54.673Z,99703.79
2023-05-23T06:43:22.177Z,99700.56
2023-05-23T06:45:54.077Z,99698.42
2023-05-23T06:48:21.542Z,99697.11
2023-05-23T06:50:49.590Z,99697.59
2023-05-23T06:53:19.197Z,99687.91
2023-05-23T06:55:47.370Z,99685.48
2023-05-23T06:58:16.818Z,99685.84
2023-05-23T07:00:44.429Z,99688.05
2023-05-23T07:03:43.352Z,99687.36
2023-05-23T07:06:12.030Z,99689.65
2023-05-23T07:08:40.010Z,99686.91
2023-05-23T07:11:07.570Z,99686.89
2023-05-23T07:13:38.804Z,99683.36
2023-05-23T07:16:06.241Z,99684.00
2023-05-23T07:18:37.746Z,99686.81
2023-05-23T07:21:06.099Z,99687.87
2023-05-23T07:23:34.598Z,99691.07
2023-05-23T07:26:03.337Z,99695.13
2023-05-23T07:28:41.834Z,99690.97
2023-05-23T07:31:10.029Z,99691.17
2023-05-23T07:33:38.125Z,99689.86
2023-05-23T07:36:06.195Z,99691.39
2023-05-23T07:38:33.747Z,99691.21
2023-05-23T07:41:10.730Z,99693.36
2023-05-23T07:43:39.754Z,99690.53
2023-05-23T07:46:07.366Z,99692.13
2023-05-23T07:48:34.760Z,99689.02
2023-05-23T07:51:04.108Z,99683.64
2023-05-23T07:53:31.757Z,99685.50
2023-05-23T07:55:59.333Z,99681.08
2023-05-23T07:58:29.192Z,99679.79
2023-05-23T08:00:58.075Z,99686.13
2023-05-23T08:03:51.870Z,99680.78
2023-05-23T08:06:24.050Z,99679.39
2023-05-23T08:08:51.837Z,99675.45
2023-05-23T08:11:19.145Z,99672.00
2023-05-23T08:13:49.807Z,99676.25
2023-05-23T08:16:38.003Z,99671.45
2023-05-23T08:19:08.757Z,99671.93
2023-05-23T08:21:36.465Z,99664.92
2023-05-23T08:24:04.268Z,99663.74
2023-05-23T08:26:34.955Z,99664.94
2023-05-23T08:29:03.128Z,99664.66
2023-05-23T08:31:31.589Z,99662.64
2023-05-23T08:33:59.324Z,99657.52
2023-05-23T08:36:26.830Z,99659.33
2023-05-23T08:38:54.316Z,99653.63
2023-05-23T08:41:34.139Z,99654.16
2023-05-23T08:44:04.417Z,99653.64
2023-05-23T08:46:38.814Z,99651.95
2023-05-23T08:49:06.262Z,99645.16
2023-05-23T08:51:33.802Z,99644.81
2023-05-23T08:54:02.634Z,99646.20
2023-05-23T08:56:30.284Z,99641.38
2023-05-23T08:58:58.054Z,99640.19
2023-05-23T09:01:25.642Z,99636.88
2023-05-23T09:03:54.562Z,99635.66
2023-05-23T09:06:28.353Z,99636.30
2023-05-23T09:08:57.272Z,99630.08
2023-05-23T09:11:25.263Z,99633.20
2023-05-23T09:13:53.084Z,99629.16
2023-05-23T09:16:21.259Z,99625.70
2023-05-23T09:18:55.106Z,99622.17
2023-05-23T09:21:24.295Z,99617.39
2023-05-23T09:23:57.421Z,99614.79
2023-05-23T09:26:26.017Z,99617.02
2023-05-23T09:28:53.311Z,99612.21
2023-05-23T09:31:25.519Z,99616.25
2023-05-23T09:33:55.943Z,99614.33
2023-05-23T09:36:23.279Z,99614.13
2023-05-23T09:38:52.729Z,99608.67
2023-05-23T09:41:20.778Z,99610.47
2023-05-23T09:43:51.742Z,99602.86
2023-05-23T09:46:20.043Z,99598.92
2023-05-23T09:48:48.472Z,99600.48
2023-05-23T09:51:16.288Z,99599.35
2023-05-23T09:53:43.577Z,99596.13
2023-05-23T09:56:11.639Z,99585.38
2023-05-23T09:58:38.998Z,99587.04
2023-05-23T10:01:07.604Z,99589.32
2023-05-23T10:03:44.294Z,99588.91
2023-05-23T10:06:17.094Z,99593.42
2023-05-23T10:08:44.963Z,99597.71
2023-05-23T10:11:16.653Z,99592.48
2023-05-23T10:13:45.247Z,99594.20
2023-05-23T10:16:16.479Z,99595.79
2023-05-23T10:18:44.579Z,99591.56
2023-05-23T10:21:13.153Z,99586.42
2023-05-23T10:23:40.926Z,99586.64
2023-05-23T10:26:08.353Z,99580.18
2023-05-23T10:28:35.667Z,99581.42
2023-05-23T10:31:03.006Z,99575.64
2023-05-23T10:35:20.989Z,99567.73
2023-05-23T10:38:01.030Z,99572.83
2023-05-23T10:40:42.655Z,99572.73
2023-05-23T10:43:20.893Z,99572.48
2023-05-23T10:45:50.922Z,99570.58
2023-05-23T10:48:41.046Z,99570.83
2023-05-23T10:51:09.326Z,99568.51
2023-05-23T10:53:38.292Z,99561.48
2023-05-23T10:56:07.421Z,99562.77
2023-05-23T10:58:35.920Z,99559.80
2023-05-23T11:01:06.618Z,99560.82
2023-05-23T11:03:46.353Z,99551.09
2023-05-23T11:06:35.925Z,99554.48
2023-05-23T11:09:10.429Z,99553.98
2023-05-23T11:12:00.133Z,99549.94
2023-05-23T11:14:33.771Z,99547.77
2023-05-23T11:17:01.877Z,99542.45
2023-05-23T11:19:29.881Z,99540.75
2023-05-23T11:22:02.232Z,99541.02
2023-05-23T11:24:52.470Z,99539.02
2023-05-23T11:27:37.852Z,99545.78
2023-05-23T11:30:14.860Z,99538.02
2023-05-23T11:32:51.976Z,99538.84
2023-05-23T11:35:19.425Z,99541.50
2023-05-23T11:37:47.181Z,99539.27
2023-05-23T11:40:43.694Z,99536.19
2023-05-23T11:43:16.836Z,99528.59
2023-05-23T11:45:46.852Z,99532.30
2023-05-23T11:48:16.437Z,99534.02
2023-05-23T11:50:44.533Z,99526.51
2023-05-23T11:53:12.465Z,99526.19
2023-05-23T11:55:41.248Z,99527.92
2023-05-23T11:58:09.289Z,99526.63
2023-05-23T12:00:43.762Z,99521.86
2023-05-23T12:03:11.931Z,99519.32
2023-05-23T12:05:39.377Z,99520.45
2023-05-23T12:08:06.884Z,99521.87
2023-05-23T12:10:34.389Z,99516.67
2023-05-23T12:13:01.803Z,99515.32
2023-05-23T12:15:29.930Z,99507.91
2023-05-23T12:17:58.054Z,99509.23
2023-05-23T12:20:26.682Z,99511.09
2023-05-23T12:22:54.746Z,99510.90
2023-05-23T12:25:23.465Z,99511.94
2023-05-23T12:27:50.810Z,99509.14
2023-05-23T12:30:18.369Z,99506.05
2023-05-23T12:32:46.810Z,99504.16
2023-05-23T12:35:15.191Z,99510.40
2023-05-23T12:37:46.651Z,99500.92
2023-05-23T12:40:14.619Z,99500.46
2023-05-23T12:42:54.555Z,99494.48
2023-05-23T12:45:36.582Z,99486.36
2023-05-23T12:48:05.100Z,99488.27
2023-05-23T12:50:32.652Z,99482.42
2023-05-23T12:53:00.173Z,99487.37
2023-05-23T12:55:27.584Z,99481.20
2023-05-23T12:57:54.926Z,99480.27
2023-05-23T13:00:22.281Z,99476.80
2023-05-23T13:02:51.701Z,99477.36
2023-05-23T13:05:19.231Z,99476.15
2023-05-23T13:07:46.557Z,99469.29
2023-05-23T13:10:14.041Z,99473.91
2023-05-23T13:12:42.429Z,99466.92
2023-05-23T13:15:11.021Z,99466.08
2023-05-23T13:17:38.409Z,99462.23
2023-05-23T13:20:07.700Z,99463.23
2023-05-23T13:22:35.372Z,99460.42
2023-05-23T13:25:02.648Z,99458.89
2023-05-23T13:27:30.335Z,99457.73
2023-05-23T13:29:57.590Z,99458.41
2023-05-23T13:32:24.876Z,99455.27
2023-05-23T13:34:52.520Z,99452.45
2023-05-23T13:37:19.926Z,99452.39
2023-05-23T13:39:47.219Z,99452.44
2023-05-23T13:42:14.548Z,99454.64
2023-05-23T13:44:41.832Z,99453.06
2023-05-23T13:47:13.475Z,99449.11
2023-05-23T13:49:42.314Z,99454.11
2023-05-23T13:52:09.712Z,99457.23
2023-05-23T13:54:36.957Z,99454.41
2023-05-23T13:57:04.934Z,99451.90
2023-05-23T13:59:32.223Z,99452.29
2023-05-23T14:01:59.794Z,99453.83
2023-05-23T14:04:27.187Z,99456.30
2023-05-23T14:06:54.499Z,99453.86
2023-05-23T14:09:23.217Z,99452.08
2023-05-23T14:11:52.449Z,99451.09
2023-05-23T14:14:20.103Z,99446.66
2023-05-23T14:16:47.528Z,99443.77
2023-05-23T14:19:14.959Z,99444.39
2023-05-23T14:21:44.790Z,99440.83
2023-05-23T14:24:12.511Z,99439.84
2023-05-23T14:26:39.832Z,99438.08
2023-05-23T14:29:07.844Z,99438.36
2023-05-23T14:31:35.736Z,99442.11
2023-05-23T14:34:03.506Z,99438.70
2023-05-23T14:36:31.827Z,99440.07
2023-05-23T14:38:59.155Z,99439.39
2023-05-23T14:41:27.239Z,99438.75
2023-05-23T14:43:54.611Z,99434.41
2023-05-23T14:46:22.033Z,99437.05
2023-05-23T14:48:49.487Z,99438.92
2023-05-23T14:51:27.459Z,99436.70
2023-05-23T14:54:04.509Z,99431.29
2023-05-23T14:56:32.194Z,99428.02
2023-05-23T14:59:01.089Z,99427.96
2023-05-23T15:01:28.931Z,99429.50
2023-05-23T15:03:56.403Z,99425.98
2023-05-23T15:06:24.000Z,99426.33
2023-05-23T15:08:52.344Z,99426.97
2023-05-23T15:11:19.619Z,99423.61
2023-05-23T15:13:46.927Z,99421.25
2023-05-23T15:16:14.473Z,99421.36
2023-05-23T15:18:42.330Z,99415.69
2023-05-23T15:21:10.709Z,99414.50
2023-05-23T15:23:38.290Z,99415.05
2023-05-23T15:26:05.684Z,99413.86
2023-05-23T15:28:33.025Z,99415.77
2023-05-23T15:31:00.336Z,99410.20
2023-05-23T15:33:27.718Z,99412.76
2023-05-23T15:35:55.232Z,99414.04
2023-05-23T15:38:22.704Z,99415.59
2023-05-23T15:40:52.707Z,99413.80
2023-05-23T15:43:20.706Z,99413.37
2023-05-23T15:45:49.818Z,99410.84
2023-05-23T15:48:17.432Z,99413.08
2023-05-23T15:50:45.334Z,99408.45
2023-05-23T15:53:12.745Z,99406.95
2023-05-23T15:55:42.541Z,99408.95
2023-05-23T15:58:11.050Z,99409.12
2023-05-23T16:00:38.555Z,99408.27
2023-05-23T16:03:06.052Z,99409.60
2023-05-23T16:05:33.323Z,99408.80
2023-05-23T16:08:00.968Z,99407.07
2023-05-23T16:10:28.270Z,99408.48
2023-05-23T16:12:55.674Z,99413.27
2023-05-23T16:15:23.024Z,99407.40
2023-05-23T16:17:50.464Z,99408.31
2023-05-23T16:20:17.802Z,99408.47
2023-05-23T16:22:46.003Z,99408.27
2023-05-23T16:25:13.389Z,99406.23
2023-05-23T16:27:40.692Z,99407.32
2023-05-23T16:30:08.684Z,99406.71
2023-05-23T16:32:36.060Z,99407.04
2023-05-23T16:35:03.461Z,99409.33
2023-05-23T16:37:30.809Z,99410.20
2023-05-23T16:39:58.174Z,99408.95
2023-05-23T16:42:25.480Z,99407.95
2023-05-23T16:44:53.283Z,99410.09
2023-05-23T16:47:20.573Z,99405.25
2023-05-23T16:49:47.903Z,99406.94
2023-05-23T16:52:15.281Z,99412.57
2023-05-23T16:54:42.675Z,99412.79
2023-05-23T16:57:10.963Z,99416.42
2023-05-23T16:59:38.290Z,99416.27
2023-05-23T17:02:05.909Z,99424.00
2023-05-23T17:04:34.102Z,99421.04
2023-05-23T17:07:01.671Z,99423.27
2023-05-23T17:09:29.710Z,99421.36
2023-05-23T17:11:57.026Z,99421.23
2023-05-23T17:14:24.326Z,99423.52
2023-05-23T17:16:51.697Z,99423.26
2023-05-23T17:19:20.274Z,99422.09
2023-05-23T17:21:48.487Z,99418.33
2023-05-23T17:24:16.299Z,99421.23
2023-05-23T17:26:43.585Z,99418.94
2023-05-23T17:29:11.239Z,99419.70
2023-05-23T17:31:38.691Z,99421.42
2023-05-23T17:34:06.659Z,99421.31
2023-05-23T17:36:35.152Z,99419.79
2023-05-23T17:39:02.476Z,99418.49
2023-05-23T17:41:29.861Z,99419.70
2023-05-23T17:43:57.189Z,99417.72
2023-05-23T17:46:24.712Z,99417.69
2023-05-23T17:48:52.086Z,99422.61
2023-05-23T17:51:19.413Z,99426.39
2023-05-23T17:53:46.762Z,99430.27
2023-05-23T17:56:14.060Z,99430.42
2023-05-23T17:58:43.415Z,99432.48
2023-05-23T18:01:11.887Z,99433.28
2023-05-23T18:03:39.227Z,99434.37
2023-05-23T18:06:07.021Z,99433.69
2023-05-23T18:08:34.356Z,99438.86
2023-05-23T18:11:02.603Z,99438.02
2023-05-23T18:13:29.915Z,99438.84
2023-05-23T18:15:57.255Z,99439.20
2023-05-23T18:18:25.347Z,99440.18
2023-05-23T18:20:52.741Z,99435.67
2023-05-23T18:23:20.078Z,99435.27
2023-05-23T18:25:48.568Z,99441.46
2023-05-23T18:28:16.013Z,99448.38
2023-05-23T18:30:43.531Z,99446.22
2023-05-23T18:33:11.296Z,99448.17
2023-05-23T18:35:38.664Z,99450.98
2023-05-23T18:38:06.135Z,99450.19
2023-05-23T18:40:33.602Z,99451.21
2023-05-23T18:43:01.000Z,99448.42
2023-05-23T18:45:28.400Z,99449.36
2023-05-23T18:47:56.125Z,99449.60
2023-05-23T18:50:23.832Z,99448.19
2023-05-23T18:52:51.294Z,99449.48
2023-05-23T18:55:20.327Z,99445.80
2023-05-23T18:57:47.716Z,99454.97
2023-05-23T19:00:15.172Z,99455.92
2023-05-23T19:02:44.600Z,99458.12
2023-05-23T19:05:12.626Z,99459.18
2023-05-23T19:07:40.121Z,99455.77
2023-05-23T19:10:08.071Z,99457.70
2023-05-23T19:12:35.603Z,99459.05
2023-05-23T19:15:03.048Z,99461.80
2023-05-23T19:17:31.095Z,99461.27
2023-05-23T19:19:58.483Z,99462.61
2023-05-23T19:22:27.867Z,99458.08
2023-05-23T19:24:58.999Z,99458.39
2023-05-23T19:27:26.824Z,99457.44
2023-05-23T19:29:54.079Z,99457.13
2023-05-23T19:32:21.530Z,99455.22
2023-05-23T19:34:49.154Z,99457.27
2023-05-23T19:37:17.377Z,99458.48
2023-05-23T19:39:46.214Z,99457.66
2023-05-23T19:42:13.540Z,99458.47
2023-05-23T19:44:40.866Z,99459.44
2023-05-23T19:47:08.228Z,99463.69
2023-05-23T19:49:35.916Z,99465.86
2023-05-23T19:52:03.453Z,99464.08
2023-05-23T19:54:30.860Z,99460.30
2023-05-23T19:56:58.281Z,99457.98
2023-05-23T19:59:25.618Z,99456.64
2023-05-23T20:01:53.269Z,99455.15
2023-05-23T20:04:24.080Z,99464.52
2023-05-23T20:06:52.083Z,99462.44
2023-05-23T20:09:19.427Z,99468.33
2023-05-23T20:11:46.971Z,99473.72
2023-05-23T20:14:14.276Z,99472.75
2023-05-23T20:16:41.701Z,99474.37
2023-05-23T20:19:09.964Z,99476.11
2023-05-23T20:21:37.390Z,99474.61
2023-05-23T20:24:05.092Z,99477.55
2023-05-23T20:26:32.613Z,99475.29
2023-05-23T20:29:00.031Z,99477.13
2023-05-23T20:31:27.361Z,99474.48
2023-05-23T20:33:54.826Z,99478.05
2023-05-23T20:36:23.480Z,99480.65
2023-05-23T20:38:52.572Z,99479.16
2023-05-23T20:41:20.415Z,99484.92
2023-05-23T20:43:48.514Z,99485.72
2023-05-23T20:46:15.890Z,99486.05
2023-05-23T20:48:43.415Z,99484.49
2023-05-23T20:51:11.006Z,99482.77
2023-05-23T20:53:38.287Z,99481.67
2023-05-23T20:56:06.178Z,99488.15
2023-05-23T20:58:33.877Z,99484.22
2023-05-23T21:01:01.322Z,99485.97
2023-05-23T21:03:29.395Z,99485.06
2023-05-23T21:05:56.826Z,99489.13
2023-05-23T21:08:24.177Z,99487.10
2023-05-23T21:10:54.173Z,99490.46
2023-05-23T21:13:22.102Z,99492.04
2023-05-23T21:15:49.641Z,99490.38
2023-05-23T21:18:17.057Z,99494.29
2023-05-23T21:20:44.528Z,99493.11
2023-05-23T21:23:12.086Z,99491.97
2023-05-23T21:25:39.594Z,99494.45
2023-05-23T21:28:06.912Z,99495.09
2023-05-23T21:30:34.401Z,99492.55
2023-05-23T21:33:01.811Z,99496.36
2023-05-23T21:35:29.204Z,99498.91
2023-05-23T21:37:56.585Z,99498.70
2023-05-23T21:40:25.536Z,99503.30
2023-05-23T21:42:52.799Z,99507.59
2023-05-23T21:45:20.153Z,99510.86
2023-05-23T21:47:47.531Z,99505.58
2023-05-23T21:50:14.942Z,99510.52
2023-05-23T21:52:42.260Z,99505.39
2023-05-23T21:55:09.733Z,99505.23
2023-05-23T21:57:37.055Z,99506.63
2023-05-23T22:00:04.963Z,99506.16
2023-05-23T22:02:40.915Z,99505.95
2023-05-23T22:05:08.902Z,99501.91
2023-05-23T22:07:36.968Z,99502.29
2023-05-23T22:10:04.627Z,99501.38
2023-05-23T22:12:32.304Z,99504.09
2023-05-23T22:14:59.568Z,99500.20
2023-05-23T22:17:26.993Z,99499.56
2023-05-23T22:19:55.975Z,99496.48
2023-05-23T22:22:23.417Z,99500.86
2023-05-23T22:24:51.870Z,99499.08
2023-05-23T22:27:19.762Z,99499.73
2023-05-23T22:29:47.270Z,99502.85
2023-05-23T22:32:14.530Z,99501.45
2023-05-23T22:34:41.918Z,99505.14
2023-05-23T22:37:09.727Z,99503.58
2023-05-23T22:39:37.124Z,99498.86
2023-05-23T22:42:05.090Z,99502.14
2023-05-23T22:44:32.387Z,99497.55
2023-05-23T22:47:00.083Z,99497.00
2023-05-23T22:52:02.256Z,99494.61
2023-05-23T22:54:29.574Z,99496.02
2023-05-23T22:56:56.927Z,99497.88
2023-05-23T22:59:24.228Z,99498.89
2023-05-23T23:01:51.573Z,99495.48
2023-05-23T23:04:23.585Z,99496.19
2023-05-23T23:06:53.810Z,99506.27
2023-05-23T23:09:21.338Z,99508.02
2023-05-23T23:11:48.635Z,99507.08
2023-05-23T23:14:15.935Z,99504.33
2023-05-23T23:16:43.494Z,99506.22
2023-05-23T23:19:10.890Z,99506.84
2023-05-23T23:21:38.898Z,99508.43
2023-05-23T23:24:08.001Z,99510.80
2023-05-23T23:26:35.615Z,99502.83
2023-05-23T23:29:03.406Z,99503.56
2023-05-23T23:31:30.917Z,99501.90
2023-05-23T23:33:58.233Z,99505.85
2023-05-23T23:36:25.611Z,99507.79
2023-05-23T23:38:52.939Z,99499.44
2023-05-23T23:41:21.157Z,99500.19
2023-05-23T23:43:48.494Z,99496.20
2023-05-23T23:46:16.697Z,99495.54
2023-05-23T23:48:44.199Z,99498.98
2023-05-23T23:51:12.949Z,99504.54
2023-05-23T23:53:40.422Z,99501.66
2023-05-23T23:56:07.779Z,99500.46
2023-05-23T23:58:35.820Z,99498.95
